Time;durP1;ratioP1;P1;durP2;ratioP2;P2;SDS_P1;SDS_P2;PMS_P1;PMS_P2;Temp;Humidity;BMP_temperature;BMP_pressure;BME280_temperature;BME280_humidity;BME280_pressure;Samples;Min_cycle;Max_cycle;Signal;HPM_P1;HPM_P2
2021/10/06 00:01:38;;;;;;;12.90;7.50;;;;;;;12.77;53.91;100193.52;112981;1195;96213;-75
2021/10/06 00:04:25;;;;;;;17.50;8.10;;;;;;;12.75;53.94;100184.71;112922;1195;137143;-74
2021/10/06 00:07:12;;;;;;;19.10;8.90;;;;;;;12.73;54.02;100184.08;114489;1187;109944;-75
2021/10/06 00:09:59;;;;;;;16.50;7.90;;;;;;;12.70;54.16;100181.59;114130;1195;137396;-74
2021/10/06 00:12:47;;;;;;;24.30;8.50;;;;;;;12.68;54.20;100194.76;114450;1193;108448;-75
2021/10/06 00:15:34;;;;;;;16.40;7.50;;;;;;;12.66;54.42;100197.30;114285;1195;138369;-76
2021/10/06 00:18:22;;;;;;;;;;;;;;;12.65;54.41;100192.63;114460;1195;95776;-75
2021/10/06 00:21:09;;;;;;;;;;;;;;;12.64;54.49;100189.17;114311;1195;123540;-77
2021/10/06 00:23:56;;;;;;;15.70;7.80;;;;;;;12.62;54.67;100191.70;114397;1195;108856;-77
2021/10/06 00:26:43;;;;;;;17.10;8.90;;;;;;;12.61;54.65;100186.54;114324;1195;137631;-76
2021/10/06 00:29:30;;;;;;;;;;;;;;;12.60;54.69;100175.41;114439;1195;94464;-75
2021/10/06 00:32:17;;;;;;;17.20;8.80;;;;;;;12.58;54.78;100177.07;114423;1195;124412;-74
2021/10/06 00:35:05;;;;;;;15.70;8.20;;;;;;;12.55;54.90;100173.48;114504;1195;110950;-74
2021/10/06 00:37:53;;;;;;;14.40;8.20;;;;;;;12.54;54.95;100174.08;114530;1194;110774;-74
2021/10/06 00:40:40;;;;;;;22.10;8.70;;;;;;;12.52;55.10;100191.39;114407;1195;137858;-75
2021/10/06 00:43:27;;;;;;;16.60;8.30;;;;;;;12.52;55.05;100181.66;114530;1195;95448;-74
2021/10/06 00:46:14;;;;;;;20.10;8.30;;;;;;;12.52;55.19;100187.05;114406;1194;137299;-74
2021/10/06 00:49:01;;;;;;;;;;;;;;;12.52;55.19;100197.85;114584;1195;111015;-73
2021/10/06 00:51:49;;;;;;;17.50;8.20;;;;;;;12.52;55.24;100191.58;114380;1194;123942;-75
2021/10/06 00:54:36;;;;;;;16.40;8.10;;;;;;;12.51;55.26;100187.61;114446;1187;109635;-75
2021/10/06 00:57:23;;;;;;;12.70;8.00;;;;;;;12.51;55.23;100187.96;114418;1194;138920;-75
2021/10/06 01:00:11;;;;;;;15.80;8.40;;;;;;;12.50;55.36;100196.75;113826;1195;95558;-75
2021/10/06 01:02:58;;;;;;;12.30;7.80;;;;;;;12.50;55.30;100192.57;114410;1195;137785;-75
2021/10/06 01:05:48;;;;;;;13.90;7.90;;;;;;;12.50;55.39;100202.33;113673;1195;108550;-76
2021/10/06 01:08:35;;;;;;;16.20;8.10;;;;;;;12.50;55.42;100199.88;114392;1195;137518;-75
2021/10/06 01:11:22;;;;;;;19.20;8.10;;;;;;;12.50;55.44;100202.98;114548;1195;95283;-74
2021/10/06 01:14:09;;;;;;;;;;;;;;;12.51;55.32;100180.13;114585;1194;95289;-75
2021/10/06 01:16:56;;;;;;;18.10;8.10;;;;;;;12.51;55.37;100198.80;114393;1194;125994;-75
2021/10/06 01:19:44;;;;;;;16.60;8.30;;;;;;;12.51;55.34;100193.23;114503;1195;109097;-75
2021/10/06 01:22:31;;;;;;;20.10;8.00;;;;;;;12.51;55.35;100178.04;114408;1194;138615;-75
2021/10/06 01:25:17;;;;;;;16.70;7.90;;;;;;;12.51;55.41;100173.32;114518;1195;95463;-75
2021/10/06 01:28:05;;;;;;;15.80;8.10;;;;;;;12.52;55.47;100183.42;114407;1195;138504;-75
2021/10/06 01:30:52;;;;;;;20.00;8.30;;;;;;;12.53;55.46;100193.81;114505;1194;110778;-75
2021/10/06 01:33:39;;;;;;;14.20;8.00;;;;;;;12.53;55.46;100184.73;113936;1195;136246;-74
2021/10/06 01:36:26;;;;;;;13.30;8.00;;;;;;;12.54;55.48;100185.40;113048;1195;109385;-75
2021/10/06 01:39:14;;;;;;;16.00;8.10;;;;;;;12.54;55.45;100166.02;112979;1195;139420;-74
2021/10/06 01:42:02;;;;;;;18.40;7.80;;;;;;;12.55;55.57;100188.66;113092;1195;96138;-76
2021/10/06 01:44:49;;;;;;;12.40;7.40;;;;;;;12.56;55.53;100189.14;113817;1196;137717;-76
2021/10/06 01:47:36;;;;;;;15.60;7.50;;;;;;;12.56;55.45;100190.37;113058;1195;108622;-76
2021/10/06 01:50:25;;;;;;;14.00;7.80;;;;;;;12.56;55.55;100187.23;112988;1195;108755;-76
2021/10/06 01:53:14;;;;;;;15.30;8.20;;;;;;;12.56;55.53;100198.58;114247;1196;136123;-77
2021/10/06 01:56:02;;;;;;;14.40;7.70;;;;;;;12.56;55.55;100184.60;114527;1195;94482;-76
2021/10/06 01:58:49;;;;;;;18.90;8.10;;;;;;;12.56;55.56;100180.61;114304;1196;139360;-76
2021/10/06 02:01:37;;;;;;;17.80;7.30;;;;;;;12.57;55.46;100191.06;113522;1195;107847;-75
2021/10/06 02:04:23;;;;;;;15.60;6.90;;;;;;;12.57;55.49;100190.17;112914;1195;137395;-76
2021/10/06 02:07:11;;;;;;;11.40;7.50;;;;;;;12.57;55.59;100192.64;113024;1195;96280;-75
2021/10/06 02:09:58;;;;;;;;;;;;;;;12.56;55.63;100189.14;114339;1197;137713;-74
2021/10/06 02:12:44;;;;;;;20.50;7.80;;;;;;;12.55;55.53;100189.19;114506;1195;110875;-74
2021/10/06 02:15:31;;;;;;;15.10;7.80;;;;;;;12.54;55.61;100196.39;113040;1195;137983;-75
2021/10/06 02:18:19;;;;;;;20.40;7.40;;;;;;;12.54;55.46;100192.56;113399;1195;108556;-75
2021/10/06 02:21:07;;;;;;;17.70;8.20;;;;;;;12.53;55.49;100196.77;113893;1195;137904;-76
2021/10/06 02:23:54;;;;;;;16.20;7.70;;;;;;;12.53;55.57;100199.23;113037;1195;96169;-74
2021/10/06 02:26:41;;;;;;;13.00;7.60;;;;;;;12.52;55.59;100208.48;114239;1196;109766;-75
2021/10/06 02:29:28;;;;;;;12.90;7.20;;;;;;;12.51;55.63;100213.27;114377;1195;137804;-75
2021/10/06 02:32:14;;;;;;;18.40;7.50;;;;;;;12.50;55.58;100202.66;114544;1195;107921;-75
2021/10/06 02:35:03;;;;;;;15.60;8.00;;;;;;;12.50;55.53;100187.34;114217;1196;137948;-75
2021/10/06 02:37:50;;;;;;;14.00;7.70;;;;;;;12.49;55.60;100187.70;114501;1195;95328;-76
2021/10/06 02:40:37;;;;;;;17.50;8.10;;;;;;;12.49;55.57;100194.67;114382;1195;139443;-76
2021/10/06 02:43:23;;;;;;;14.80;7.60;;;;;;;12.49;55.57;100195.21;114496;1195;107772;-75
2021/10/06 02:46:10;;;;;;;13.80;7.90;;;;;;;12.48;55.53;100198.22;113174;1195;137783;-74
2021/10/06 02:48:58;;;;;;;14.10;8.00;;;;;;;12.48;55.51;100209.73;114410;1195;94322;-75
2021/10/06 02:51:45;;;;;;;16.30;8.10;;;;;;;12.47;55.45;100205.92;113591;1196;138263;-74
2021/10/06 02:54:32;;;;;;;15.60;7.90;;;;;;;12.46;55.50;100196.73;112957;1195;110859;-76
2021/10/06 02:57:19;;;;;;;;;;;;;;;12.45;55.64;100212.30;114300;1196;138286;-74
2021/10/06 03:00:10;;;;;;;17.40;8.00;;;;;;;12.42;55.60;100216.08;114393;1196;108784;-74
2021/10/06 03:02:58;;;;;;;15.20;7.80;;;;;;;12.40;55.62;100212.13;113606;1197;96203;-75
2021/10/06 03:05:45;;;;;;;18.50;7.50;;;;;;;12.40;55.64;100209.01;114392;1195;137701;-75
2021/10/06 03:08:33;;;;;;;16.00;8.00;;;;;;;12.39;55.68;100214.46;114412;1196;111188;-75
2021/10/06 03:11:20;;;;;;;12.70;8.00;;;;;;;12.37;55.64;100228.98;114390;1195;137906;-75
2021/10/06 03:14:06;;;;;;;14.60;8.00;;;;;;;12.36;55.61;100222.56;114491;1195;108930;-75
2021/10/06 03:16:53;;;;;;;14.90;8.20;;;;;;;12.35;55.62;100215.98;114130;1196;138037;-75
2021/10/06 03:19:41;;;;;;;22.30;7.90;;;;;;;12.35;55.73;100212.52;114521;1195;95234;-74
2021/10/06 03:22:27;;;;;;;15.70;7.90;;;;;;;12.34;55.78;100219.16;114306;1196;137249;-74
2021/10/06 03:25:15;;;;;;;14.10;8.30;;;;;;;12.34;55.70;100206.45;114478;1195;108447;-75
2021/10/06 03:28:02;;;;;;;14.10;8.20;;;;;;;12.34;55.76;100218.14;114358;1195;137465;-75
2021/10/06 03:30:49;;;;;;;15.20;7.20;;;;;;;12.34;55.79;100231.56;114341;1196;94506;-76
2021/10/06 03:33:36;;;;;;;16.80;8.40;;;;;;;12.34;55.76;100213.44;114396;1195;137486;-75
2021/10/06 03:36:23;;;;;;;17.50;8.40;;;;;;;12.33;55.73;100212.92;114398;1196;109970;-74
2021/10/06 03:39:09;;;;;;;23.10;8.80;;;;;;;12.34;55.69;100213.23;114514;1195;108746;-74
2021/10/06 03:41:57;;;;;;;14.20;8.20;;;;;;;12.35;55.67;100208.85;114219;1196;137153;-75
2021/10/06 03:44:44;;;;;;;;;;;;;;;12.34;55.75;100224.89;114389;1196;94602;-74
2021/10/06 03:47:31;;;;;;;16.40;8.20;;;;;;;12.33;56.67;100217.80;114442;1195;125019;-74
2021/10/06 03:50:19;;;;;;;13.20;8.10;;;;;;;12.26;57.50;100224.22;114470;1195;110384;-75
2021/10/06 03:53:07;;;;;;;15.10;7.80;;;;;;;12.13;57.47;100219.68;114367;1195;138599;-74
2021/10/06 03:55:54;;;;;;;17.10;7.90;;;;;;;12.03;57.49;100231.21;114531;1195;108708;-75
2021/10/06 03:58:42;;;;;;;15.20;7.50;;;;;;;12.03;57.40;100236.44;114353;1195;137790;-74
2021/10/06 04:01:29;;;;;;;18.20;8.30;;;;;;;12.04;57.19;100224.55;114480;1195;95185;-74
2021/10/06 04:04:17;;;;;;;12.10;8.20;;;;;;;12.07;56.97;100239.23;114297;1196;137463;-75
2021/10/06 04:07:04;;;;;;;16.10;7.60;;;;;;;12.11;56.75;100235.61;114356;1196;109678;-75
2021/10/06 04:09:50;;;;;;;17.20;7.60;;;;;;;12.14;56.71;100239.50;114360;1195;137700;-74
2021/10/06 04:12:37;;;;;;;14.30;7.90;;;;;;;12.16;56.55;100223.04;114473;1195;94597;-75
2021/10/06 04:15:24;;;;;;;11.40;8.10;;;;;;;12.18;56.56;100227.84;114147;1195;94643;-75
2021/10/06 04:18:12;;;;;;;14.90;7.80;;;;;;;12.20;56.47;100211.73;112702;1196;136998;-75
2021/10/06 04:20:59;;;;;;;17.60;8.00;;;;;;;12.21;56.49;100219.36;112871;1195;108544;-75
2021/10/06 04:23:46;;;;;;;13.20;7.50;;;;;;;12.21;56.41;100224.75;112835;1196;137635;-75
2021/10/06 04:26:34;;;;;;;16.10;8.10;;;;;;;12.21;56.41;100243.05;112826;1196;97251;-75
2021/10/06 04:29:20;;;;;;;15.80;8.40;;;;;;;12.21;56.53;100242.01;112672;1195;137613;-76
2021/10/06 04:32:08;;;;;;;17.50;8.20;;;;;;;12.21;56.44;100238.00;112941;1195;110463;-75
2021/10/06 04:34:55;;;;;;;15.50;8.20;;;;;;;12.21;56.53;100241.48;112696;1197;137890;-75
2021/10/06 04:37:42;;;;;;;13.70;8.10;;;;;;;12.21;56.47;100249.67;112917;1197;108647;-76
2021/10/06 04:40:29;;;;;;;11.70;7.60;;;;;;;12.21;56.55;100242.89;112637;1196;138618;-77
2021/10/06 04:43:17;;;;;;;15.30;7.80;;;;;;;12.20;56.51;100240.13;114505;1195;95274;-76
2021/10/06 04:46:04;;;;;;;17.20;8.00;;;;;;;12.20;56.56;100241.34;114243;1196;137857;-76
2021/10/06 04:48:51;;;;;;;15.70;6.90;;;;;;;12.20;56.51;100239.41;114531;1187;107663;-76
2021/10/06 04:51:37;;;;;;;14.40;7.70;;;;;;;12.22;56.50;100239.56;114464;1195;110095;-73
2021/10/06 04:54:24;;;;;;;15.30;8.00;;;;;;;12.23;56.62;100241.96;114393;1195;137329;-76
2021/10/06 04:57:11;;;;;;;16.00;8.80;;;;;;;12.24;56.58;100244.00;113624;1197;95141;-76
2021/10/06 04:59:59;;;;;;;17.60;8.40;;;;;;;12.25;56.65;100249.02;112761;1195;137266;-76
2021/10/06 05:02:46;;;;;;;;;;;;;;;12.25;56.71;100265.41;114524;1195;109885;-75
2021/10/06 05:05:33;;;;;;;15.90;8.30;;;;;;;12.23;56.79;100267.77;114395;1196;124845;-74
2021/10/06 05:08:20;;;;;;;13.20;8.30;;;;;;;12.21;56.85;100280.18;114445;1195;95375;-75
2021/10/06 05:11:07;;;;;;;19.30;8.40;;;;;;;12.20;56.96;100276.39;114344;1196;137678;-75
2021/10/06 05:13:54;;;;;;;16.00;8.70;;;;;;;12.18;57.36;100291.64;114531;1195;110070;-75
2021/10/06 05:16:41;;;;;;;;;;;;;;;12.14;57.99;100301.04;114365;1195;137702;-73
2021/10/06 05:19:31;;;;;;;17.10;8.20;;;;;;;12.05;59.38;100309.90;114408;1195;108591;-75
2021/10/06 05:22:22;;;;;;;19.70;8.30;;;;;;;11.93;60.69;100301.95;113402;1195;138302;-73
2021/10/06 05:25:09;;;;;;;14.00;8.50;;;;;;;11.80;62.28;100312.20;112903;1196;96175;-74
2021/10/06 05:27:57;;;;;;;13.80;8.20;;;;;;;11.59;63.90;100304.58;112968;1196;111243;-75
2021/10/06 05:30:44;;;;;;;14.70;8.60;;;;;;;11.39;64.21;100313.09;114354;1195;138045;-74
2021/10/06 05:33:31;;;;;;;17.90;9.00;;;;;;;11.25;64.92;100311.48;114509;1195;108734;-75
2021/10/06 05:36:19;;;;;;;14.10;8.00;;;;;;;11.15;65.07;100321.59;114295;1195;138463;-74
2021/10/06 05:39:06;;;;;;;13.80;9.20;;;;;;;11.11;64.77;100314.75;114441;1195;95260;-74
2021/10/06 05:41:53;;;;;;;15.70;9.00;;;;;;;11.11;65.01;100331.27;114330;1195;138097;-75
2021/10/06 05:44:43;;;;;;;19.00;9.70;;;;;;;11.11;64.66;100330.57;114514;1195;108529;-75
2021/10/06 05:47:34;;;;;;;14.80;8.90;;;;;;;11.13;64.54;100324.95;114299;1195;137972;-75
2021/10/06 05:50:21;;;;;;;14.20;8.80;;;;;;;11.18;64.40;100351.08;114406;1195;94434;-75
2021/10/06 05:53:10;;;;;;;13.90;8.20;;;;;;;11.24;64.19;100344.77;114178;1195;137397;-75
2021/10/06 05:55:57;;;;;;;17.40;8.50;;;;;;;11.29;63.88;100339.20;114519;1195;110865;-75
2021/10/06 05:58:43;;;;;;;12.20;8.60;;;;;;;11.34;63.70;100350.02;114313;1195;137954;-76
2021/10/06 06:01:30;;;;;;;16.80;8.00;;;;;;;11.37;63.69;100349.89;114439;1195;108632;-75
2021/10/06 06:04:18;;;;;;;16.70;8.90;;;;;;;11.42;63.40;100349.58;114480;1195;95140;-75
2021/10/06 06:07:06;;;;;;;14.80;8.40;;;;;;;11.47;63.17;100359.83;114375;1195;137399;-76
2021/10/06 06:09:53;;;;;;;15.60;9.00;;;;;;;11.51;62.87;100361.65;114487;1195;110606;-75
2021/10/06 06:12:42;;;;;;;16.40;9.10;;;;;;;11.54;62.63;100364.14;114361;1195;137388;-75
2021/10/06 06:15:30;;;;;;;13.10;7.80;;;;;;;11.57;62.64;100366.67;114381;1195;107439;-75
2021/10/06 06:18:21;;;;;;;14.10;8.40;;;;;;;11.59;62.57;100366.75;114363;1195;139622;-75
2021/10/06 06:21:08;;;;;;;17.10;8.50;;;;;;;11.63;62.29;100367.80;113222;1196;96186;-76
2021/10/06 06:23:57;;;;;;;16.70;8.20;;;;;;;11.68;62.19;100369.41;113493;1195;138419;-77
2021/10/06 06:26:44;;;;;;;12.30;8.70;;;;;;;11.71;62.18;100371.91;112820;1195;108680;-83
2021/10/06 06:29:32;;;;;;;12.30;8.30;;;;;;;11.74;61.84;100376.33;112654;1196;137596;-77
2021/10/06 06:32:20;;;;;;;16.10;8.00;;;;;;;11.76;61.84;100372.42;113930;1195;94750;-80
2021/10/06 06:35:08;;;;;;;17.00;8.90;;;;;;;11.80;61.74;100386.94;112961;1195;137936;-76
2021/10/06 06:37:55;;;;;;;15.70;8.30;;;;;;;11.83;61.49;100384.72;113546;1195;110777;-78
2021/10/06 06:40:43;;;;;;;12.30;7.80;;;;;;;11.85;61.43;100394.80;113061;1195;109946;-73
2021/10/06 06:43:30;;;;;;;;;;;;;;;11.84;61.35;100390.63;112725;1196;108053;-74
2021/10/06 06:46:18;;;;;;;14.10;8.80;;;;;;;11.83;61.30;100387.52;114269;1195;94957;-78
2021/10/06 06:49:05;;;;;;;13.50;7.80;;;;;;;11.83;61.31;100391.17;114336;1195;138112;-80
2021/10/06 06:51:52;;;;;;;15.90;7.70;;;;;;;11.86;61.21;100398.60;114358;1195;110913;-81
2021/10/06 06:54:43;;;;;;;14.90;8.10;;;;;;;11.90;60.85;100390.44;114274;1195;137475;-81
2021/10/06 06:57:30;;;;;;;18.70;9.60;;;;;;;11.98;61.10;100395.36;112789;1195;108655;-76
2021/10/06 07:00:25;;;;;;;13.80;8.80;;;;;;;12.04;61.46;100408.21;112683;1196;138381;-77
2021/10/06 07:03:18;;;;;;;15.30;8.60;;;;;;;12.08;61.26;100412.61;112870;1196;94701;-75
2021/10/06 07:06:06;;;;;;;15.00;8.60;;;;;;;12.11;61.50;100408.67;113416;1194;138821;-75
2021/10/06 07:08:54;;;;;;;14.30;8.20;;;;;;;12.35;61.32;100404.84;112891;1196;108742;-76
2021/10/06 07:11:41;;;;;;;18.50;8.30;;;;;;;12.92;60.09;100403.35;112879;1195;137705;-76
2021/10/06 07:14:28;;;;;;;;;;;;;;;13.51;58.57;100403.80;113208;1195;96236;-76
2021/10/06 07:17:16;;;;;;;17.90;8.50;;;;;;;13.94;57.41;100405.45;112884;1195;124001;-76
2021/10/06 07:20:04;;;;;;;16.20;9.30;;;;;;;14.08;56.93;100404.65;114637;1195;110072;-77
2021/10/06 07:22:54;;;;;;;12.00;8.60;;;;;;;14.15;56.17;100417.27;114662;1195;108732;-77
2021/10/06 07:25:41;;;;;;;13.80;8.30;;;;;;;14.23;55.76;100419.22;114461;1195;137807;-76
2021/10/06 07:28:28;;;;;;;14.60;8.70;;;;;;;14.36;54.79;100422.48;114575;1195;94513;-76
2021/10/06 07:31:16;;;;;;;17.00;8.40;;;;;;;14.35;54.90;100420.76;113821;1195;138672;-79
2021/10/06 07:34:03;;;;;;;13.00;8.10;;;;;;;14.38;54.78;100435.88;114367;1195;110882;-77
2021/10/06 07:36:50;;;;;;;13.80;8.00;;;;;;;14.39;54.72;100434.25;114377;1195;137316;-79
2021/10/06 07:39:36;;;;;;;12.60;8.30;;;;;;;14.29;54.12;100443.09;114342;1195;108279;-78
2021/10/06 07:42:23;;;;;;;18.00;7.50;;;;;;;14.18;54.18;100444.40;112929;1196;137405;-74
2021/10/06 07:45:11;;;;;;;14.60;7.70;;;;;;;14.33;53.74;100444.99;112770;1195;96978;-81
2021/10/06 07:47:58;;;;;;;12.30;7.60;;;;;;;14.60;53.42;100435.05;114277;1195;137373;-82
2021/10/06 07:50:46;;;;;;;13.80;8.10;;;;;;;14.97;52.86;100444.55;114386;1195;108573;-79
2021/10/06 07:53:32;;;;;;;15.50;8.30;;;;;;;15.20;52.05;100446.07;112730;1195;137741;-79
2021/10/06 07:56:20;;;;;;;15.10;7.70;;;;;;;15.66;51.65;100431.22;112834;1195;96324;-81
2021/10/06 07:59:08;;;;;;;13.10;7.50;;;;;;;16.16;49.88;100438.62;114122;1195;94221;-81
2021/10/06 08:01:54;;;;;;;14.70;7.70;;;;;;;16.27;49.60;100437.16;114241;1195;136985;-81
2021/10/06 08:04:42;;;;;;;11.50;7.10;;;;;;;16.16;49.13;100444.41;113278;1195;108467;-80
2021/10/06 08:07:30;;;;;;;16.70;8.30;;;;;;;16.11;48.85;100457.14;114302;1195;137507;-80
2021/10/06 08:10:18;;;;;;;14.50;7.70;;;;;;;15.84;49.25;100452.05;113589;1195;96295;-80
2021/10/06 08:13:06;;;;;;;20.40;8.10;;;;;;;15.52;49.56;100469.39;114342;1195;137296;-81
2021/10/06 08:15:55;;;;;;;17.70;7.70;;;;;;;15.22;50.11;100457.89;113327;1182;111428;-80
2021/10/06 08:18:42;;;;;;;18.00;8.20;;;;;;;14.90;50.91;100474.44;113052;1194;137737;-80
2021/10/06 08:21:34;;;;;;;14.30;7.50;;;;;;;14.63;51.51;100478.33;113615;1195;108567;-83
2021/10/06 08:24:21;;;;;;;14.70;8.10;;;;;;;14.41;51.96;100474.36;114470;1195;138209;-78
2021/10/06 08:27:11;;;;;;;15.00;7.60;;;;;;;14.26;52.60;100465.93;113442;1195;96190;-80
2021/10/06 08:29:58;;;;;;;11.90;7.30;;;;;;;14.13;52.99;100452.66;112955;1195;137605;-79
2021/10/06 08:32:46;;;;;;;;;;;;;;;14.04;53.28;100455.52;113210;1195;108836;-75
2021/10/06 08:35:34;;;;;;;14.40;7.80;;;;;;;13.99;53.47;100455.94;113729;1195;125142;-78
2021/10/06 08:38:24;;;;;;;13.80;8.00;;;;;;;14.02;53.64;100464.02;114090;1194;96182;-79
2021/10/06 08:41:13;;;;;;;14.10;8.20;;;;;;;14.10;53.47;100462.77;113180;1196;96248;-79
2021/10/06 08:44:01;;;;;;;12.80;8.00;;;;;;;14.13;53.49;100460.73;114245;1195;137247;-79
2021/10/06 08:46:48;;;;;;;10.60;7.60;;;;;;;14.15;53.65;100469.41;113228;1195;108646;-77
2021/10/06 08:49:36;;;;;;;11.60;7.40;;;;;;;14.54;53.05;100478.18;114534;1195;137762;-76
2021/10/06 08:52:23;;;;;;;14.90;7.00;;;;;;;14.76;52.24;100467.92;114573;1195;95316;-76
2021/10/06 08:55:10;;;;;;;15.10;7.80;;;;;;;14.80;52.30;100471.58;114560;1195;137667;-76
2021/10/06 08:58:03;;;;;;;14.10;7.40;;;;;;;14.82;52.01;100472.89;114608;1195;111291;-76
2021/10/06 09:00:59;;;;;;;10.30;7.60;;;;;;;14.92;51.83;100480.50;113442;1195;137356;-82
2021/10/06 09:03:54;;;;;;;13.90;7.30;;;;;;;15.10;51.49;100475.27;114174;1195;107578;-77
2021/10/06 09:06:45;;;;;;;17.20;7.60;;;;;;;15.24;50.56;100492.45;114518;1194;137446;-78
2021/10/06 09:09:34;;;;;;;11.20;7.10;;;;;;;15.28;50.81;100471.80;113490;1195;96154;-78
2021/10/06 09:12:21;;;;;;;14.40;7.20;;;;;;;15.71;50.82;100463.70;114542;1195;137603;-79
2021/10/06 09:15:10;;;;;;;14.10;7.30;;;;;;;16.71;49.56;100470.80;114555;1195;108759;-78
2021/10/06 09:18:01;;;;;;;12.10;6.60;;;;;;;17.63;47.60;100462.35;114334;1196;137596;-79
2021/10/06 09:20:49;;;;;;;12.20;6.20;;;;;;;18.37;46.62;100466.23;114642;1195;94669;-80
2021/10/06 09:23:38;;;;;;;13.60;6.30;;;;;;;18.55;44.27;100467.59;114601;1195;94496;-78
2021/10/06 09:26:25;;;;;;;9.60;6.10;;;;;;;18.24;44.33;100463.85;113584;1195;111167;-77
2021/10/06 09:29:22;;;;;;;9.60;6.40;;;;;;;18.13;45.37;100466.80;113096;1195;107765;-78
2021/10/06 09:32:22;;;;;;;11.60;6.00;;;;;;;18.54;44.39;100472.73;112937;1196;137464;-79
2021/10/06 09:35:23;;;;;;;15.30;6.70;;;;;;;19.04;44.00;100470.37;113163;1195;96129;-78
2021/10/06 09:38:11;;;;;;;10.30;6.10;;;;;;;19.35;42.15;100486.88;112916;1195;137271;-80
2021/10/06 09:40:58;;;;;;;9.60;5.70;;;;;;;19.24;41.52;100495.83;113085;1195;111363;-78
2021/10/06 09:44:02;;;;;;;10.90;6.60;;;;;;;18.98;42.09;100477.82;113055;1195;137303;-78
2021/10/06 09:47:08;;;;;;;10.60;6.00;;;;;;;18.64;43.03;100473.40;114629;1195;108495;-78
2021/10/06 09:49:57;;;;;;;14.40;6.20;;;;;;;18.32;43.26;100478.48;114557;1194;137816;-78
2021/10/06 09:52:44;;;;;;;10.80;6.60;;;;;;;17.90;44.01;100488.42;114567;1195;94516;-78
2021/10/06 09:55:36;;;;;;;9.70;6.10;;;;;;;17.57;44.92;100481.33;113781;1195;137341;-77
2021/10/06 09:58:24;;;;;;;12.70;6.50;;;;;;;17.27;45.51;100489.35;113082;1195;108586;-78
2021/10/06 10:01:12;;;;;;;14.80;6.80;;;;;;;17.04;45.90;100485.23;113050;1195;137409;-78
2021/10/06 10:03:59;;;;;;;10.00;6.30;;;;;;;16.82;46.25;100495.90;113254;1195;96262;-78
2021/10/06 10:06:50;;;;;;;12.30;6.90;;;;;;;16.57;46.53;100496.34;113023;1195;137516;-78
2021/10/06 10:09:39;;;;;;;13.10;6.80;;;;;;;16.42;47.21;100501.48;113062;1196;110823;-78
2021/10/06 10:12:26;;;;;;;;;;;;;;;16.54;47.43;100494.05;114413;1195;137839;-79
2021/10/06 10:15:15;;;;;;;11.30;6.40;;;;;;;16.62;47.30;100495.89;114563;1195;109016;-79
2021/10/06 10:18:08;;;;;;;13.00;6.20;;;;;;;16.52;47.23;100502.36;114067;1195;94471;-78
2021/10/06 10:20:56;;;;;;;15.20;6.50;;;;;;;16.44;47.67;100496.64;113245;1195;96173;-77
2021/10/06 10:23:43;;;;;;;;;;;;;;;16.43;47.86;100498.48;114542;1194;111052;-79
2021/10/06 10:26:31;;;;;;;13.80;6.60;;;;;;;16.46;48.00;100497.23;114459;1195;123952;-81
2021/10/06 10:29:56;;;;;;;14.00;6.60;;;;;;;16.46;47.74;100506.04;114604;1195;108814;-82
2021/10/06 10:32:46;;;;;;;12.00;6.70;;;;;;;16.63;47.40;100501.98;113179;1195;137343;-77
2021/10/06 10:35:38;;;;;;;12.10;7.00;;;;;;;16.71;47.00;100499.31;114588;1195;94397;-76
2021/10/06 10:38:35;;;;;;;12.20;6.70;;;;;;;16.78;47.23;100501.91;112992;1196;137486;-75
2021/10/06 10:41:48;;;;;;;11.90;6.80;;;;;;;16.78;46.81;100496.63;112951;1195;108866;-74
2021/10/06 10:44:41;;;;;;;9.80;6.80;;;;;;;16.79;47.11;100501.52;112657;1196;137616;-75
2021/10/06 10:47:48;;;;;;;12.60;6.90;;;;;;;16.73;47.21;100504.27;113574;1195;94863;-73
2021/10/06 10:51:01;;;;;;;14.80;7.10;;;;;;;16.71;47.45;100498.45;113608;1195;137930;-73
2021/10/06 10:53:50;;;;;;;13.00;6.90;;;;;;;16.69;47.34;100500.44;113815;1195;110885;-74
2021/10/06 10:56:48;;;;;;;14.60;7.00;;;;;;;16.71;47.45;100504.05;113724;1195;138179;-72
2021/10/06 10:59:44;;;;;;;10.80;7.30;;;;;;;16.66;47.17;100493.56;113825;1195;108494;-76
2021/10/06 11:02:34;;;;;;;13.10;7.20;;;;;;;16.63;47.15;100503.02;113721;1195;137958;-76
2021/10/06 11:05:21;;;;;;;13.50;7.30;;;;;;;16.55;47.26;100505.73;113591;1195;95802;-78
2021/10/06 11:08:24;;;;;;;13.20;7.10;;;;;;;16.54;47.34;100512.14;113593;1195;138026;-78
2021/10/06 11:11:15;;;;;;;17.20;7.80;;;;;;;16.58;47.39;100523.47;113645;1196;108007;-78
2021/10/06 11:14:18;;;;;;;;;;;;;;;16.57;46.97;100515.29;113704;1195;137509;-78
2021/10/06 11:17:10;;;;;;;18.70;7.40;;;;;;;16.54;47.04;100521.95;113773;1195;94687;-78
2021/10/06 11:19:57;;;;;;;14.00;8.00;;;;;;;16.52;47.02;100522.73;113609;1196;138104;-75
2021/10/06 11:22:45;;;;;;;13.20;6.90;;;;;;;16.55;47.02;100533.45;113842;1195;111013;-76
2021/10/06 11:25:40;;;;;;;16.50;6.50;;;;;;;16.58;47.09;100535.23;114113;1194;208703;-77
2021/10/06 11:28:27;;;;;;;12.90;7.70;;;;;;;16.65;47.06;100525.20;114286;1195;108742;-76
2021/10/06 11:31:21;;;;;;;12.20;7.70;;;;;;;16.68;46.79;100520.68;114198;1195;139757;-75
2021/10/06 11:34:16;;;;;;;12.10;7.30;;;;;;;16.74;46.60;100533.54;114463;1195;94467;-77
2021/10/06 11:37:04;;;;;;;15.20;7.60;;;;;;;16.81;46.72;100523.52;114219;1188;137444;-76
2021/10/06 11:39:51;;;;;;;11.70;7.10;;;;;;;16.85;46.49;100523.77;114366;1195;108834;-76
2021/10/06 11:42:39;;;;;;;16.60;7.30;;;;;;;16.89;46.53;100528.02;114432;1195;138993;-75
2021/10/06 11:45:28;;;;;;;15.20;7.00;;;;;;;16.94;46.52;100528.11;114527;1195;94276;-73
2021/10/06 11:48:15;;;;;;;12.60;7.10;;;;;;;16.94;46.31;100531.42;114552;1195;94571;-74
2021/10/06 11:51:02;;;;;;;;;;;;;;;16.82;46.09;100529.21;114460;1195;136936;-74
2021/10/06 11:53:50;;;;;;;13.40;6.80;;;;;;;16.71;46.15;100524.92;113177;1196;108768;-76
2021/10/06 11:56:38;;;;;;;11.80;7.20;;;;;;;16.64;46.66;100523.86;112975;1195;137554;-74
2021/10/06 11:59:30;;;;;;;11.10;7.00;;;;;;;16.59;46.71;100528.84;113226;1195;96143;-75
2021/10/06 12:02:18;;;;;;;16.00;7.30;;;;;;;16.60;47.07;100516.19;114364;1194;138418;-77
2021/10/06 12:05:07;;;;;;;11.40;6.90;;;;;;;16.66;47.14;100521.31;113461;1195;110874;-74
2021/10/06 12:07:53;;;;;;;13.20;7.30;;;;;;;16.68;46.82;100525.79;114527;1195;138890;-75
2021/10/06 12:10:42;;;;;;;;;;;;;;;16.70;47.11;100523.95;114189;1195;108525;-75
2021/10/06 12:13:40;;;;;;;11.10;7.20;;;;;;;16.72;46.84;100525.25;114443;1195;124165;-76
2021/10/06 12:16:28;;;;;;;15.50;8.10;;;;;;;16.77;47.27;100524.95;114587;1195;94411;-77
2021/10/06 12:19:23;;;;;;;14.10;8.10;;;;;;;16.87;47.12;100520.52;113948;1194;137618;-76
2021/10/06 12:22:10;;;;;;;17.10;9.00;;;;;;;16.98;46.76;100523.84;114564;1195;108640;-75
2021/10/06 12:24:57;;;;;;;16.20;8.90;;;;;;;17.06;46.64;100524.46;114521;1195;138369;-76
2021/10/06 12:27:50;;;;;;;11.50;8.10;;;;;;;17.15;46.64;100526.03;114002;1195;94904;-76
2021/10/06 12:30:38;;;;;;;16.30;8.10;;;;;;;17.24;46.48;100526.95;114603;1195;94871;-77
2021/10/06 12:33:26;;;;;;;11.10;7.60;;;;;;;17.30;46.40;100521.41;113380;1195;110842;-75
2021/10/06 12:36:13;;;;;;;21.10;8.30;;;;;;;17.30;46.16;100532.63;114066;1195;108520;-74
2021/10/06 12:39:02;;;;;;;16.30;9.00;;;;;;;17.31;46.39;100534.11;114427;1195;138112;-76
2021/10/06 12:41:52;;;;;;;16.80;8.60;;;;;;;17.34;46.42;100529.71;114590;1195;94444;-76
2021/10/06 12:44:42;;;;;;;13.30;8.20;;;;;;;17.34;45.94;100547.13;114446;1195;137538;-77